Terminal Aerodrome Forecast
Issued by NWS

Home | Current Version | Previous Version | Text Only | Print | Product List | Glossary On
Versions: 1 2 3 4 5 6 7 8 9 10 11 12 13 14
000
FTUS41 KPHI 241140
TAFPNE
TAF
KPNE 241140Z 2412/2512 01003KT P6SM SCT250
     FM241400 VRB04KT P6SM SCT250
     FM241600 25007KT P6SM SCT250
     FM250100 19005KT P6SM BKN150
     FM250800 VRB02KT 6SM BR BKN150
      TEMPO 2508/2511 SHRA BKN060=

USA.gov is the U.S. government's official web portal to all federal, state and local government web resources and services.